createdAt,value
2023-05-22T00:02:28.647Z,18.11
2023-05-22T00:05:00.086Z,18.10
2023-05-22T00:07:30.353Z,18.08
2023-05-22T00:10:00.536Z,18.02
2023-05-22T00:12:30.803Z,18.03
2023-05-22T00:15:01.146Z,17.96
2023-05-22T00:17:31.404Z,17.94
2023-05-22T00:20:08.269Z,17.88
2023-05-22T00:22:39.485Z,17.88
2023-05-22T00:25:10.596Z,17.83
2023-05-22T00:27:40.860Z,17.77
2023-05-22T00:30:11.745Z,17.75
2023-05-22T00:32:41.930Z,17.64
2023-05-22T00:35:12.256Z,17.70
2023-05-22T00:37:42.464Z,17.62
2023-05-22T00:40:13.888Z,17.62
2023-05-22T00:42:44.953Z,17.59
2023-05-22T00:45:15.858Z,17.58
2023-05-22T00:47:46.590Z,17.46
2023-05-22T00:50:18.147Z,17.53
2023-05-22T00:52:48.619Z,17.49
2023-05-22T00:55:18.871Z,17.44
2023-05-22T00:57:50.918Z,17.42
2023-05-22T01:02:56.426Z,17.37
2023-05-22T01:05:26.881Z,17.36
2023-05-22T01:07:57.391Z,17.27
2023-05-22T01:10:28.501Z,17.33
2023-05-22T01:13:26.257Z,17.33
2023-05-22T01:16:01.884Z,17.30
2023-05-22T01:18:52.717Z,17.29
2023-05-22T01:21:46.384Z,17.25
2023-05-22T01:24:44.317Z,17.23
2023-05-22T01:27:51.249Z,17.21
2023-05-22T01:30:32.192Z,17.19
2023-05-22T01:33:04.710Z,17.09
2023-05-22T01:35:37.686Z,17.11
2023-05-22T01:38:09.228Z,17.12
2023-05-22T01:40:39.993Z,17.13
2023-05-22T01:43:10.877Z,17.11
2023-05-22T01:45:41.166Z,17.06
2023-05-22T01:48:12.311Z,17.07
2023-05-22T01:50:42.779Z,17.07
2023-05-22T01:53:24.892Z,17.00
2023-05-22T01:56:10.235Z,17.02
2023-05-22T01:58:40.623Z,16.99
2023-05-22T02:01:14.491Z,16.96
2023-05-22T02:03:47.393Z,16.94
2023-05-22T02:06:19.638Z,16.90
2023-05-22T02:08:51.213Z,16.89
2023-05-22T02:11:24.312Z,16.86
2023-05-22T02:13:55.944Z,16.81
2023-05-22T02:16:29.024Z,16.78
2023-05-22T02:19:06.787Z,16.71
2023-05-22T02:21:37.125Z,16.67
2023-05-22T02:24:07.382Z,16.64
2023-05-22T02:26:37.984Z,16.60
2023-05-22T02:29:08.406Z,16.56
2023-05-22T02:31:38.768Z,16.53
2023-05-22T02:34:08.955Z,16.48
2023-05-22T02:36:39.986Z,16.50
2023-05-22T02:39:10.206Z,16.45
2023-05-22T02:41:40.296Z,16.56
2023-05-22T02:44:10.624Z,16.54
2023-05-22T02:46:40.941Z,16.55
2023-05-22T02:49:11.107Z,16.53
2023-05-22T02:51:41.345Z,16.54
2023-05-22T02:54:11.861Z,16.56
2023-05-22T02:56:43.394Z,16.51
2023-05-22T02:59:13.542Z,16.52
2023-05-22T03:01:44.686Z,16.54
2023-05-22T03:04:15.934Z,16.56
2023-05-22T03:06:46.951Z,16.58
2023-05-22T03:09:17.084Z,16.62
2023-05-22T03:11:47.423Z,16.64
2023-05-22T03:14:17.636Z,16.64
2023-05-22T03:16:47.890Z,16.66
2023-05-22T03:19:18.204Z,16.71
2023-05-22T03:21:50.261Z,16.74
2023-05-22T03:24:21.267Z,16.74
2023-05-22T03:26:51.441Z,16.77
2023-05-22T03:29:21.980Z,16.82
2023-05-22T03:31:53.287Z,16.86
2023-05-22T03:34:23.386Z,16.88
2023-05-22T03:36:53.618Z,16.96
2023-05-22T03:39:23.727Z,16.96
2023-05-22T03:41:54.003Z,17.01
2023-05-22T03:44:24.952Z,17.02
2023-05-22T03:46:55.175Z,17.11
2023-05-22T03:49:25.389Z,17.18
2023-05-22T03:51:55.555Z,17.22
2023-05-22T03:54:25.938Z,17.28
2023-05-22T03:56:56.238Z,17.36
2023-05-22T03:59:26.470Z,17.44
2023-05-22T04:01:58.270Z,17.49
2023-05-22T04:04:29.099Z,17.58
2023-05-22T04:06:59.536Z,17.56
2023-05-22T04:09:31.931Z,17.74
2023-05-22T04:12:02.831Z,17.78
2023-05-22T04:14:33.190Z,17.84
2023-05-22T04:17:03.446Z,17.92
2023-05-22T04:19:33.801Z,17.99
2023-05-22T04:22:04.282Z,18.03
2023-05-22T04:24:34.436Z,18.10
2023-05-22T04:27:04.888Z,18.19
2023-05-22T04:29:36.622Z,18.21
2023-05-22T04:32:10.776Z,18.30
2023-05-22T04:34:42.003Z,18.35
2023-05-22T04:37:15.438Z,18.42
2023-05-22T04:39:46.426Z,18.50
2023-05-22T04:42:17.608Z,18.53
2023-05-22T04:44:48.522Z,18.60
2023-05-22T04:47:19.570Z,18.63
2023-05-22T04:49:49.812Z,18.57
2023-05-22T04:52:19.982Z,18.59
2023-05-22T04:54:52.356Z,18.74
2023-05-22T04:57:25.769Z,18.80
2023-05-22T04:59:57.898Z,18.86
2023-05-22T05:02:28.557Z,18.94
2023-05-22T05:04:58.760Z,18.99
2023-05-22T05:07:29.629Z,19.08
2023-05-22T05:09:59.876Z,19.12
2023-05-22T05:12:30.129Z,19.14
2023-05-22T05:15:00.805Z,19.14
2023-05-22T05:17:31.224Z,19.18
2023-05-22T05:20:18.145Z,19.24
2023-05-22T05:22:48.554Z,19.29
2023-05-22T05:25:18.941Z,19.37
2023-05-22T05:27:49.222Z,19.41
2023-05-22T05:30:20.537Z,19.43
2023-05-22T05:32:50.976Z,19.46
2023-05-22T05:35:21.911Z,19.50
2023-05-22T05:37:52.127Z,19.52
2023-05-22T05:40:22.316Z,19.53
2023-05-22T05:42:52.514Z,19.60
2023-05-22T05:45:22.743Z,19.64
2023-05-22T05:47:53.317Z,19.72
2023-05-22T05:50:23.994Z,19.71
2023-05-22T05:52:54.203Z,19.82
2023-05-22T05:55:24.554Z,19.85
2023-05-22T05:57:54.880Z,19.88
2023-05-22T06:00:25.128Z,19.94
2023-05-22T06:02:56.174Z,19.99
2023-05-22T06:05:27.204Z,20.06
2023-05-22T06:07:59.092Z,20.13
2023-05-22T06:10:29.264Z,20.19
2023-05-22T06:12:59.483Z,20.27
2023-05-22T06:15:30.992Z,20.30
2023-05-22T06:18:02.732Z,20.41
2023-05-22T06:20:33.131Z,20.47
2023-05-22T06:23:03.337Z,20.47
2023-05-22T06:25:34.172Z,20.47
2023-05-22T06:28:04.548Z,20.44
2023-05-22T06:30:40.160Z,20.50
2023-05-22T06:33:10.818Z,20.52
2023-05-22T06:35:41.350Z,20.58
2023-05-22T06:38:11.550Z,20.59
2023-05-22T06:40:41.991Z,20.60
2023-05-22T06:43:12.872Z,20.58
2023-05-22T06:45:44.778Z,20.65
2023-05-22T06:48:15.836Z,20.72
2023-05-22T06:50:47.927Z,20.76
2023-05-22T06:53:18.352Z,20.82
2023-05-22T06:55:48.852Z,20.85
2023-05-22T06:58:21.371Z,20.97
2023-05-22T07:00:52.431Z,20.92
2023-05-22T07:03:24.832Z,21.00
2023-05-22T07:05:57.840Z,21.00
2023-05-22T07:08:30.419Z,21.04
2023-05-22T07:11:02.231Z,21.08
2023-05-22T07:13:32.553Z,21.15
2023-05-22T07:16:03.198Z,21.22
2023-05-22T07:18:33.462Z,21.30
2023-05-22T07:21:03.909Z,21.41
2023-05-22T07:23:34.128Z,21.45
2023-05-22T07:26:04.339Z,21.45
2023-05-22T07:28:34.514Z,21.47
2023-05-22T07:31:04.803Z,21.53
2023-05-22T07:33:35.014Z,21.55
2023-05-22T07:36:05.690Z,21.63
2023-05-22T07:38:35.800Z,21.77
2023-05-22T07:41:06.165Z,21.80
2023-05-22T07:43:36.774Z,21.97
2023-05-22T07:46:07.173Z,21.89
2023-05-22T07:48:37.376Z,22.10
2023-05-22T07:51:08.085Z,22.16
2023-05-22T07:53:38.273Z,22.17
2023-05-22T07:56:08.610Z,22.25
2023-05-22T07:58:40.176Z,22.30
2023-05-22T08:01:10.482Z,22.35
2023-05-22T08:03:41.033Z,22.46
2023-05-22T08:06:11.639Z,22.58
2023-05-22T08:08:42.024Z,22.65
2023-05-22T08:11:12.221Z,22.71
2023-05-22T08:13:42.447Z,22.83
2023-05-22T08:16:13.062Z,22.91
2023-05-22T08:18:43.282Z,22.96
2023-05-22T08:21:13.582Z,23.08
2023-05-22T08:23:43.848Z,23.18
2023-05-22T08:26:15.402Z,23.23
2023-05-22T08:28:45.768Z,23.29
2023-05-22T08:31:16.157Z,23.29
2023-05-22T08:33:46.486Z,23.32
2023-05-22T08:36:17.023Z,23.36
2023-05-22T08:38:47.199Z,23.46
2023-05-22T08:41:17.536Z,23.51
2023-05-22T08:43:54.756Z,23.54
2023-05-22T08:46:29.516Z,23.65
2023-05-22T08:49:01.674Z,23.75
2023-05-22T08:51:34.512Z,23.85
2023-05-22T08:54:08.996Z,23.83
2023-05-22T08:56:52.989Z,23.93
2023-05-22T08:59:26.286Z,23.96
2023-05-22T09:01:58.331Z,24.01
2023-05-22T09:04:29.098Z,24.02
2023-05-22T09:07:05.965Z,23.98
2023-05-22T09:09:47.211Z,24.08
2023-05-22T09:12:17.696Z,24.15
2023-05-22T09:14:47.851Z,24.15
2023-05-22T09:17:18.646Z,24.31
2023-05-22T09:19:48.980Z,24.37
2023-05-22T09:22:19.241Z,24.47
2023-05-22T09:24:49.538Z,24.61
2023-05-22T09:27:23.685Z,24.64
2023-05-22T09:29:57.186Z,24.62
2023-05-22T09:32:30.210Z,24.61
2023-05-22T09:35:07.019Z,24.56
2023-05-22T09:37:37.355Z,24.47
2023-05-22T09:40:08.998Z,24.46
2023-05-22T09:42:39.270Z,24.44
2023-05-22T09:45:09.856Z,24.48
2023-05-22T09:47:40.712Z,24.59
2023-05-22T09:50:11.255Z,24.66
2023-05-22T09:52:44.424Z,24.67
2023-05-22T09:55:16.416Z,24.80
2023-05-22T09:57:49.793Z,24.85
2023-05-22T10:00:20.504Z,24.84
2023-05-22T10:02:59.257Z,24.92
2023-05-22T10:05:33.982Z,25.02
2023-05-22T10:08:32.218Z,25.14
2023-05-22T10:11:03.964Z,25.24
2023-05-22T10:13:36.361Z,25.15
2023-05-22T10:16:07.923Z,25.07
2023-05-22T10:18:39.197Z,24.95
2023-05-22T10:21:11.542Z,24.85
2023-05-22T10:23:42.149Z,24.90
2023-05-22T10:26:13.158Z,24.98
2023-05-22T10:28:51.736Z,24.94
2023-05-22T10:31:33.038Z,24.77
2023-05-22T10:34:10.508Z,24.68
2023-05-22T10:36:50.667Z,24.61
2023-05-22T10:39:32.757Z,24.57
2023-05-22T10:42:04.480Z,24.53
2023-05-22T10:44:34.905Z,24.44
2023-05-22T10:47:13.882Z,24.40
2023-05-22T10:49:45.695Z,24.42
2023-05-22T10:52:18.818Z,24.48
2023-05-22T10:54:53.770Z,24.83
2023-05-22T10:57:24.948Z,25.07
2023-05-22T11:00:15.848Z,25.31
2023-05-22T11:02:54.070Z,25.48
2023-05-22T11:05:28.253Z,25.78
2023-05-22T11:08:26.381Z,26.02
2023-05-22T11:10:59.462Z,26.11
2023-05-22T11:13:32.369Z,26.05
2023-05-22T11:16:05.478Z,26.11
2023-05-22T11:18:35.832Z,26.19
2023-05-22T11:21:10.039Z,26.20
2023-05-22T11:23:40.430Z,26.18
2023-05-22T11:26:22.558Z,26.19
2023-05-22T11:28:53.449Z,26.24
2023-05-22T11:31:24.172Z,26.19
2023-05-22T11:33:54.972Z,26.20
2023-05-22T11:36:25.511Z,26.45
2023-05-22T11:39:01.614Z,26.65
2023-05-22T11:41:34.681Z,26.76
2023-05-22T11:44:08.792Z,26.87
2023-05-22T11:46:39.594Z,27.03
2023-05-22T11:49:13.689Z,27.29
2023-05-22T11:51:44.494Z,27.45
2023-05-22T11:54:18.472Z,27.49
2023-05-22T11:56:48.668Z,27.29
2023-05-22T11:59:22.368Z,27.02
2023-05-22T12:01:52.759Z,27.12
2023-05-22T12:04:23.574Z,27.17
2023-05-22T12:06:55.072Z,27.37
2023-05-22T12:09:27.725Z,27.62
2023-05-22T12:11:58.194Z,27.67
2023-05-22T12:14:30.294Z,27.47
2023-05-22T12:17:06.849Z,27.28
2023-05-22T12:19:43.083Z,27.13
2023-05-22T12:22:14.427Z,27.39
2023-05-22T12:24:48.598Z,28.10
2023-05-22T12:27:18.778Z,29.14
2023-05-22T12:29:49.021Z,30.43
2023-05-22T12:32:22.302Z,31.76
2023-05-22T12:34:52.650Z,33.17
2023-05-22T12:37:26.041Z,34.34
2023-05-22T12:40:01.197Z,35.46
2023-05-22T12:42:31.277Z,36.57
2023-05-22T12:45:01.698Z,37.19
2023-05-22T12:47:32.957Z,37.98
2023-05-22T12:50:03.292Z,38.88
2023-05-22T12:52:33.475Z,39.79
2023-05-22T12:55:04.246Z,40.73
2023-05-22T12:57:34.577Z,41.62
2023-05-22T13:00:06.274Z,42.40
2023-05-22T13:02:36.617Z,43.14
2023-05-22T13:05:07.200Z,43.77
2023-05-22T13:07:38.290Z,44.20
2023-05-22T13:10:09.256Z,44.35
2023-05-22T13:12:39.929Z,44.41
2023-05-22T13:15:12.037Z,44.53
2023-05-22T13:17:42.375Z,44.76
2023-05-22T13:20:13.602Z,44.80
2023-05-22T13:22:43.861Z,44.87
2023-05-22T13:25:14.246Z,44.88
2023-05-22T13:27:45.005Z,44.86
2023-05-22T13:30:15.345Z,44.73
2023-05-22T13:32:45.749Z,44.85
2023-05-22T13:35:16.030Z,45.04
2023-05-22T13:37:46.532Z,45.09
2023-05-22T13:40:18.144Z,45.39
2023-05-22T13:42:48.388Z,45.37
2023-05-22T13:45:18.644Z,44.94
2023-05-22T13:47:49.881Z,44.75
2023-05-22T13:50:20.432Z,44.77
2023-05-22T13:52:50.636Z,45.13
2023-05-22T13:55:21.228Z,45.42
2023-05-22T13:57:51.814Z,45.46
2023-05-22T14:00:22.084Z,45.52
2023-05-22T14:02:52.452Z,44.94
2023-05-22T14:05:24.166Z,44.96
2023-05-22T14:07:56.221Z,44.76
2023-05-22T14:10:26.763Z,43.65
2023-05-22T14:12:56.929Z,42.86
2023-05-22T14:15:27.079Z,42.86
2023-05-22T14:17:57.362Z,43.44
2023-05-22T14:20:27.516Z,44.08
2023-05-22T14:22:58.531Z,44.34
2023-05-22T14:25:28.947Z,44.29
2023-05-22T14:27:59.127Z,43.80
2023-05-22T14:30:29.336Z,42.60
2023-05-22T14:33:00.600Z,41.91
2023-05-22T14:35:31.543Z,42.04
2023-05-22T14:38:02.084Z,41.79
2023-05-22T14:40:32.388Z,41.24
2023-05-22T14:43:02.503Z,40.55
2023-05-22T14:45:32.682Z,40.25
2023-05-22T14:48:02.900Z,40.09
2023-05-22T14:50:33.330Z,39.53
2023-05-22T14:53:04.097Z,38.67
2023-05-22T14:55:34.333Z,37.56
2023-05-22T14:58:04.539Z,36.64
2023-05-22T15:00:34.698Z,35.86
2023-05-22T15:03:05.118Z,35.38
2023-05-22T15:05:35.390Z,35.05
2023-05-22T15:08:05.621Z,34.64
2023-05-22T15:10:36.692Z,34.22
2023-05-22T15:13:07.002Z,33.77
2023-05-22T15:15:37.292Z,33.33
2023-05-22T15:18:09.149Z,32.88
2023-05-22T15:20:39.948Z,32.48
2023-05-22T15:23:10.078Z,32.00
2023-05-22T15:25:40.640Z,31.64
2023-05-22T15:28:10.987Z,31.23
2023-05-22T15:30:43.800Z,30.84
2023-05-22T15:33:14.991Z,30.64
2023-05-22T15:35:46.821Z,30.44
2023-05-22T15:38:17.053Z,30.29
2023-05-22T15:40:47.313Z,30.09
2023-05-22T15:43:17.582Z,29.81
2023-05-22T15:45:51.111Z,29.61
2023-05-22T15:48:21.401Z,29.39
2023-05-22T15:50:51.535Z,29.11
2023-05-22T15:53:22.918Z,28.89
2023-05-22T15:55:53.566Z,28.69
2023-05-22T15:58:23.719Z,28.52
2023-05-22T16:00:54.028Z,28.37
2023-05-22T16:03:24.377Z,28.17
2023-05-22T16:05:54.656Z,28.01
2023-05-22T16:08:24.819Z,27.93
2023-05-22T16:10:56.920Z,27.88
2023-05-22T16:13:29.905Z,27.72
2023-05-22T16:16:00.244Z,27.65
2023-05-22T16:18:30.612Z,27.51
2023-05-22T16:21:00.876Z,27.37
2023-05-22T16:23:31.154Z,27.31
2023-05-22T16:26:01.373Z,27.15
2023-05-22T16:28:31.819Z,27.05
2023-05-22T16:31:02.101Z,26.95
2023-05-22T16:33:36.466Z,26.82
2023-05-22T16:36:07.204Z,26.71
2023-05-22T16:38:37.681Z,26.68
2023-05-22T16:41:09.021Z,26.60
2023-05-22T16:43:41.444Z,26.45
2023-05-22T16:46:12.005Z,26.38
2023-05-22T16:48:42.319Z,26.34
2023-05-22T16:51:12.470Z,26.35
2023-05-22T16:53:42.878Z,26.28
2023-05-22T16:56:14.171Z,26.18
2023-05-22T16:58:44.545Z,26.20
2023-05-22T17:01:15.089Z,26.11
2023-05-22T17:03:46.516Z,25.98
2023-05-22T17:06:18.341Z,25.94
2023-05-22T17:08:50.947Z,25.83
2023-05-22T17:11:21.238Z,25.74
2023-05-22T17:13:51.452Z,25.61
2023-05-22T17:16:21.715Z,25.57
2023-05-22T17:18:54.749Z,25.48
2023-05-22T17:21:25.294Z,25.32
2023-05-22T17:23:55.532Z,25.19
2023-05-22T17:26:25.768Z,25.12
2023-05-22T17:28:56.024Z,24.99
2023-05-22T17:31:26.346Z,24.88
2023-05-22T17:33:56.449Z,24.84
2023-05-22T17:36:26.622Z,24.70
2023-05-22T17:38:56.871Z,24.60
2023-05-22T17:41:27.251Z,24.52
2023-05-22T17:44:00.911Z,24.43
2023-05-22T17:46:31.176Z,24.30
2023-05-22T17:49:01.693Z,24.12
2023-05-22T17:51:32.438Z,24.01
2023-05-22T17:54:02.600Z,23.86
2023-05-22T17:56:34.190Z,23.84
2023-05-22T17:59:06.645Z,23.66
2023-05-22T18:01:36.918Z,23.57
2023-05-22T18:04:07.261Z,23.49
2023-05-22T18:06:37.533Z,23.43
2023-05-22T18:09:08.362Z,23.31
2023-05-22T18:11:38.506Z,23.28
2023-05-22T18:14:08.753Z,23.20
2023-05-22T18:16:39.092Z,23.12
2023-05-22T18:19:09.391Z,22.94
2023-05-22T18:21:39.508Z,22.79
2023-05-22T18:24:09.664Z,22.78
2023-05-22T18:26:39.909Z,22.80
2023-05-22T18:29:10.479Z,22.73
2023-05-22T18:31:40.786Z,22.53
2023-05-22T18:34:11.030Z,22.53
2023-05-22T18:36:44.279Z,22.50
2023-05-22T18:39:15.029Z,22.48
2023-05-22T18:41:47.963Z,22.38
2023-05-22T18:44:18.129Z,22.26
2023-05-22T18:46:48.391Z,22.17
2023-05-22T18:49:18.580Z,22.10
2023-05-22T18:51:48.752Z,21.91
2023-05-22T18:54:18.918Z,21.91
2023-05-22T18:56:49.157Z,21.84
2023-05-22T18:59:19.410Z,21.85
2023-05-22T19:01:49.556Z,21.77
2023-05-22T19:04:20.012Z,21.79
2023-05-22T19:06:53.838Z,21.75
2023-05-22T19:09:24.847Z,21.64
2023-05-22T19:11:55.070Z,21.53
2023-05-22T19:14:25.363Z,21.42
2023-05-22T19:16:55.544Z,21.41
2023-05-22T19:19:26.332Z,21.39
2023-05-22T19:21:56.606Z,21.40
2023-05-22T19:24:28.407Z,21.35
2023-05-22T19:26:58.531Z,21.24
2023-05-22T19:29:28.732Z,21.29
2023-05-22T19:31:58.884Z,21.21
2023-05-22T19:34:29.174Z,21.22
2023-05-22T19:36:59.397Z,21.24
2023-05-22T19:39:29.540Z,21.19
2023-05-22T19:41:59.862Z,21.17
2023-05-22T19:44:30.073Z,21.15
2023-05-22T19:47:00.288Z,21.11
2023-05-22T19:49:31.810Z,21.09
2023-05-22T19:52:01.984Z,21.03
2023-05-22T19:54:32.313Z,20.97
2023-05-22T19:57:03.348Z,20.94
2023-05-22T19:59:35.838Z,20.92
2023-05-22T20:02:07.800Z,20.87
2023-05-22T20:04:39.836Z,20.87
2023-05-22T20:07:10.658Z,20.79
2023-05-22T20:09:40.905Z,20.76
2023-05-22T20:12:11.105Z,20.69
2023-05-22T20:14:42.200Z,20.60
2023-05-22T20:17:12.546Z,20.61
2023-05-22T20:19:45.187Z,20.64
2023-05-22T20:22:15.495Z,20.53
2023-05-22T20:24:47.420Z,20.50
2023-05-22T20:27:17.591Z,20.45
2023-05-22T20:29:50.081Z,20.35
2023-05-22T20:32:20.358Z,20.42
2023-05-22T20:34:52.521Z,20.45
2023-05-22T20:37:23.287Z,20.41
2023-05-22T20:39:53.537Z,20.34
2023-05-22T20:42:23.873Z,20.34
2023-05-22T20:44:54.058Z,20.26
2023-05-22T20:47:24.177Z,20.26
2023-05-22T20:49:54.476Z,20.26
2023-05-22T20:52:24.908Z,20.18
2023-05-22T20:54:55.038Z,20.13
2023-05-22T20:57:25.843Z,20.05
2023-05-22T20:59:56.219Z,20.07
2023-05-22T21:02:26.566Z,20.04
2023-05-22T21:04:56.813Z,20.01
2023-05-22T21:07:27.023Z,19.99
2023-05-22T21:09:57.207Z,19.96
2023-05-22T21:12:27.388Z,19.92
2023-05-22T21:14:57.612Z,19.91
2023-05-22T21:17:29.139Z,19.89
2023-05-22T21:19:59.309Z,19.88
2023-05-22T21:22:29.490Z,19.87
2023-05-22T21:24:59.674Z,19.82
2023-05-22T21:27:29.935Z,19.82
2023-05-22T21:30:00.136Z,19.80
2023-05-22T21:32:30.677Z,19.81
2023-05-22T21:35:00.769Z,19.79
2023-05-22T21:37:30.946Z,19.75
2023-05-22T21:40:02.514Z,19.75
2023-05-22T21:42:44.980Z,19.75
2023-05-22T21:45:16.138Z,19.70
2023-05-22T21:47:46.470Z,19.73
2023-05-22T21:50:16.853Z,19.68
2023-05-22T21:52:47.112Z,19.71
2023-05-22T21:55:17.239Z,19.63
2023-05-22T21:57:47.407Z,19.67
2023-05-22T22:00:19.119Z,19.65
2023-05-22T22:02:49.486Z,19.62
2023-05-22T22:05:19.854Z,19.58
2023-05-22T22:07:52.034Z,19.57
2023-05-22T22:10:22.509Z,19.52
2023-05-22T22:12:52.862Z,19.47
2023-05-22T22:15:23.442Z,19.44
2023-05-22T22:18:04.015Z,19.48
2023-05-22T22:20:44.137Z,19.47
2023-05-22T22:23:15.466Z,19.46
2023-05-22T22:25:45.741Z,19.46
2023-05-22T22:28:17.570Z,19.43
2023-05-22T22:30:48.031Z,19.41
2023-05-22T22:33:18.280Z,19.36
2023-05-22T22:35:49.617Z,19.35
2023-05-22T22:38:19.814Z,19.30
2023-05-22T22:40:50.211Z,19.34
2023-05-22T22:43:20.593Z,19.30
2023-05-22T22:45:50.986Z,19.24
2023-05-22T22:48:22.554Z,19.29
2023-05-22T22:50:52.915Z,19.27
2023-05-22T22:53:23.079Z,19.25
2023-05-22T22:55:57.102Z,19.18
2023-05-22T22:58:27.429Z,19.16
2023-05-22T23:00:57.735Z,19.17
2023-05-22T23:03:27.972Z,19.14
2023-05-22T23:05:58.274Z,19.13
2023-05-22T23:08:28.460Z,19.13
2023-05-22T23:10:58.661Z,19.08
2023-05-22T23:13:28.896Z,19.05
2023-05-22T23:15:59.290Z,19.05
2023-05-22T23:18:29.597Z,18.96
2023-05-22T23:20:59.834Z,18.99
2023-05-22T23:23:29.984Z,18.95
2023-05-22T23:26:00.229Z,18.92
2023-05-22T23:28:30.382Z,18.86
2023-05-22T23:31:00.545Z,18.82
2023-05-22T23:33:30.767Z,18.82
2023-05-22T23:36:01.391Z,18.79
2023-05-22T23:38:31.558Z,18.73
2023-05-22T23:41:02.074Z,18.70
2023-05-22T23:43:32.309Z,18.68
2023-05-22T23:46:02.404Z,18.62
2023-05-22T23:48:32.568Z,18.61
2023-05-22T23:51:03.514Z,18.60
2023-05-22T23:53:33.713Z,18.56
2023-05-22T23:56:04.772Z,18.51
2023-05-22T23:58:38.657Z,18.50
